Time;durP1;ratioP1;P1;durP2;ratioP2;P2;SDS_P1;SDS_P2;PMS_P1;PMS_P2;Temp;Humidity;BMP_temperature;BMP_pressure;BME280_temperature;BME280_humidity;BME280_pressure;Samples;Min_cycle;Max_cycle;Signal;HPM_P1;HPM_P2
2023/10/22 00:00:00;;;;;;;2.17;0.63;;;;;;;12.43;100.00;99631.38;5069857;28;20032;-35
2023/10/22 00:02:25;;;;;;;3.10;0.88;;;;;;;12.46;100.00;99639.00;5069796;28;20146;-35
2023/10/22 00:04:51;;;;;;;1.55;0.60;;;;;;;12.47;100.00;99637.91;5069630;28;20404;-35
2023/10/22 00:07:16;;;;;;;4.15;0.98;;;;;;;12.46;100.00;99641.69;5069800;28;20098;-34
2023/10/22 00:09:42;;;;;;;2.92;0.70;;;;;;;12.47;100.00;99646.03;5057209;28;20033;-34
2023/10/22 00:12:07;;;;;;;3.03;0.75;;;;;;;12.49;100.00;99656.59;5056239;28;20048;-35
2023/10/22 00:14:33;;;;;;;2.38;0.75;;;;;;;12.50;100.00;99663.66;5056437;28;20106;-35
2023/10/22 00:16:59;;;;;;;;;;;;;;;12.53;100.00;99658.50;5056327;28;20052;-35
2023/10/22 00:19:24;;;;;;;1.88;0.75;;;;;;;12.50;100.00;99655.53;5055814;28;20335;-35
2023/10/22 00:21:49;;;;;;;3.92;0.70;;;;;;;12.53;100.00;99660.38;5056039;28;20103;-35
2023/10/22 00:24:15;;;;;;;3.85;1.13;;;;;;;12.50;100.00;99659.06;5056021;28;20150;-35
2023/10/22 00:26:40;;;;;;;2.60;0.60;;;;;;;12.49;100.00;99660.16;5056327;28;20041;-35
2023/10/22 00:29:06;;;;;;;1.87;0.60;;;;;;;12.57;100.00;99659.56;5055615;28;20350;-35
2023/10/22 00:31:31;;;;;;;2.25;0.70;;;;;;;12.60;100.00;99671.78;5056733;28;20036;-35
2023/10/22 00:33:57;;;;;;;2.95;1.00;;;;;;;12.65;100.00;99681.81;5055748;28;20048;-35
2023/10/22 00:36:24;;;;;;;3.20;1.00;;;;;;;12.65;100.00;99677.22;5055448;28;20033;-35
2023/10/22 00:38:52;;;;;;;3.30;1.38;;;;;;;12.67;100.00;99688.59;5055681;28;20674;-35
2023/10/22 00:41:18;;;;;;;3.83;0.98;;;;;;;12.62;100.00;99677.75;5055349;28;20040;-35
2023/10/22 00:43:43;;;;;;;5.22;3.15;;;;;;;12.69;100.00;99685.59;5055615;28;20028;-35
2023/10/22 00:46:23;;;;;;;16.20;8.93;;;;;;;12.71;100.00;99695.09;5055634;28;20044;-35
2023/10/22 00:48:49;;;;;;;50.17;15.30;;;;;;;12.72;100.00;99695.91;5055735;28;20070;-35
2023/10/22 00:51:15;;;;;;;9.07;3.67;;;;;;;12.73;100.00;99689.38;5055524;28;20025;-35
2023/10/22 00:53:42;;;;;;;10.95;4.65;;;;;;;12.75;100.00;99709.75;5055404;28;20029;-35
2023/10/22 00:56:09;;;;;;;3.22;1.20;;;;;;;12.74;100.00;99705.41;5055179;28;20385;-36
2023/10/22 00:58:36;;;;;;;4.43;1.77;;;;;;;12.75;100.00;99708.94;5056655;28;20053;-35
2023/10/22 01:01:06;;;;;;;3.63;1.10;;;;;;;12.75;100.00;99711.66;5055382;28;20047;-35
2023/10/22 01:03:32;;;;;;;8.18;5.60;;;;;;;12.82;100.00;99714.88;5055264;28;20040;-35
2023/10/22 01:05:57;;;;;;;19.83;16.90;;;;;;;12.93;100.00;99711.06;5055429;28;20029;-35
2023/10/22 01:08:23;;;;;;;6.55;3.42;;;;;;;12.88;100.00;99713.78;5054843;28;20057;-35
2023/10/22 01:10:49;;;;;;;3.40;1.17;;;;;;;12.85;100.00;99714.34;5055091;28;20466;-35
2023/10/22 01:13:15;;;;;;;2.65;1.27;;;;;;;12.85;100.00;99720.59;5055060;28;20029;-35
2023/10/22 01:15:40;;;;;;;4.85;3.17;;;;;;;12.85;100.00;99712.44;5055344;28;20559;-35
2023/10/22 01:18:06;;;;;;;3.67;1.45;;;;;;;12.81;100.00;99713.25;5055362;28;20029;-35
2023/10/22 01:20:32;;;;;;;3.80;0.82;;;;;;;12.82;100.00;99720.31;5052793;28;20041;-35
2023/10/22 01:22:57;;;;;;;2.63;1.13;;;;;;;12.82;100.00;99731.16;5054861;28;20024;-36
2023/10/22 01:25:23;;;;;;;5.88;1.63;;;;;;;12.83;100.00;99733.63;5055184;28;20028;-35
2023/10/22 01:27:48;;;;;;;1.98;0.75;;;;;;;12.76;100.00;99738.50;5054975;28;20115;-35
2023/10/22 01:30:14;;;;;;;3.58;1.40;;;;;;;12.82;100.00;99742.00;5054527;28;20063;-35
2023/10/22 01:32:39;;;;;;;3.30;0.88;;;;;;;12.77;100.00;99756.38;5054671;28;20058;-35
2023/10/22 01:35:05;;;;;;;2.95;0.82;;;;;;;12.74;100.00;99759.66;5054775;28;20150;-35
2023/10/22 01:37:33;;;;;;;2.33;0.70;;;;;;;12.69;100.00;99759.66;5054760;28;20376;-35
2023/10/22 01:39:59;;;;;;;3.08;0.93;;;;;;;12.68;100.00;99768.88;5054867;28;20116;-35
2023/10/22 01:42:25;;;;;;;4.18;0.80;;;;;;;12.65;100.00;99774.84;5054427;28;20104;-35
2023/10/22 01:44:50;;;;;;;3.42;1.00;;;;;;;12.62;100.00;99776.19;5054842;28;20025;-35
2023/10/22 01:47:16;;;;;;;3.42;0.90;;;;;;;12.53;100.00;99764.25;5055244;28;20118;-35
2023/10/22 01:49:42;;;;;;;2.15;0.75;;;;;;;12.59;100.00;99776.75;5054421;28;20032;-35
2023/10/22 01:52:07;;;;;;;2.10;0.70;;;;;;;12.56;100.00;99784.59;5054667;28;20044;-35
2023/10/22 01:54:32;;;;;;;4.90;1.00;;;;;;;12.50;100.00;99786.50;5054287;28;20056;-35
2023/10/22 01:56:58;;;;;;;2.37;0.97;;;;;;;12.46;100.00;99796.25;5054547;28;20632;-35
2023/10/22 01:59:23;;;;;;;2.28;0.90;;;;;;;12.41;100.00;99788.09;5054044;28;20384;-35
2023/10/22 02:01:48;;;;;;;2.93;0.90;;;;;;;12.38;100.00;99789.44;5054486;28;20021;-35
2023/10/22 02:04:14;;;;;;;4.70;1.30;;;;;;;12.35;100.00;99808.97;5054184;28;20299;-35
2023/10/22 02:06:39;;;;;;;4.68;0.98;;;;;;;12.36;100.00;99809.78;5054934;28;20457;-35
2023/10/22 02:09:05;;;;;;;2.15;0.77;;;;;;;12.30;100.00;99816.28;5053750;28;20035;-35
2023/10/22 02:11:31;;;;;;;5.35;1.67;;;;;;;12.28;100.00;99818.44;5054019;28;20021;-35
2023/10/22 02:13:56;;;;;;;3.08;0.90;;;;;;;12.25;100.00;99814.38;5053897;28;20082;-35
2023/10/22 02:16:23;;;;;;;4.60;1.20;;;;;;;12.22;100.00;99830.34;5054700;28;20036;-35
2023/10/22 02:18:48;;;;;;;5.88;1.23;;;;;;;12.14;100.00;99838.97;5053798;28;20067;-35
2023/10/22 02:21:14;;;;;;;5.07;1.05;;;;;;;12.07;100.00;99833.81;5054405;28;20045;-35
2023/10/22 02:23:39;;;;;;;3.65;1.23;;;;;;;12.03;100.00;99836.22;5054638;28;20029;-35
2023/10/22 02:26:05;;;;;;;3.65;1.10;;;;;;;11.95;100.00;99842.16;5053790;28;20044;-35
2023/10/22 02:28:32;;;;;;;4.53;1.08;;;;;;;11.93;100.00;99849.75;5054244;28;20021;-35
2023/10/22 02:30:58;;;;;;;3.58;1.20;;;;;;;11.95;100.00;99857.59;5053176;28;20078;-35
2023/10/22 02:33:23;;;;;;;2.95;1.20;;;;;;;11.92;100.00;99863.56;5053420;28;20024;-35
2023/10/22 02:35:48;;;;;;;4.37;1.00;;;;;;;11.93;100.00;99866.00;5052217;28;20477;-35
2023/10/22 02:38:16;;;;;;;2.97;1.10;;;;;;;11.91;100.00;99870.88;5053309;28;20370;-35
2023/10/22 02:40:43;;;;;;;5.05;1.60;;;;;;;11.89;100.00;99873.00;5054434;28;20028;-35
2023/10/22 02:43:09;;;;;;;3.33;1.08;;;;;;;11.85;100.00;99885.44;5053581;28;20381;-35
2023/10/22 02:45:34;;;;;;;4.18;1.10;;;;;;;11.86;100.00;99881.69;5053649;28;20086;-35
2023/10/22 02:48:00;;;;;;;3.58;1.00;;;;;;;11.84;100.00;99878.41;5053149;28;20040;-35
2023/10/22 02:50:27;;;;;;;3.90;1.30;;;;;;;11.83;100.00;99893.03;5053800;28;20036;-35
2023/10/22 02:52:53;;;;;;;2.42;1.02;;;;;;;11.85;100.00;99888.97;5053712;28;20040;-35
2023/10/22 02:55:19;;;;;;;3.35;1.08;;;;;;;11.77;100.00;99888.63;5053689;28;20021;-35
2023/10/22 02:57:44;;;;;;;3.53;1.30;;;;;;;11.82;100.00;99905.75;5053600;28;20051;-35
2023/10/22 03:00:10;;;;;;;3.38;1.42;;;;;;;11.74;100.00;99894.56;5053744;28;20028;-35
2023/10/22 03:02:40;;;;;;;3.58;1.10;;;;;;;11.75;100.00;99910.53;5053892;28;20027;-35
2023/10/22 03:05:06;;;;;;;3.08;1.10;;;;;;;11.83;100.00;99920.94;5053682;28;20035;-35
2023/10/22 03:07:31;;;;;;;;;;;;;;;11.88;100.00;99931.00;5054014;28;20048;-35
2023/10/22 03:09:57;;;;;;;3.38;1.05;;;;;;;11.82;100.00;99929.34;5054114;28;20329;-35
2023/10/22 03:12:22;;;;;;;3.58;1.20;;;;;;;11.82;100.00;99932.84;5053282;28;20029;-35
2023/10/22 03:14:50;;;;;;;2.38;1.08;;;;;;;11.78;100.00;99933.59;5053577;28;20028;-35
2023/10/22 03:17:17;;;;;;;3.42;1.23;;;;;;;11.80;100.00;99934.16;5052856;28;20108;-35
2023/10/22 03:19:42;;;;;;;4.40;1.35;;;;;;;11.81;100.00;99938.50;5052959;28;20124;-35
2023/10/22 03:22:08;;;;;;;3.17;0.80;;;;;;;11.83;100.00;99950.72;5053244;28;20060;-35
2023/10/22 03:24:33;;;;;;;4.05;1.52;;;;;;;11.82;100.00;99949.09;5053372;28;20021;-35
2023/10/22 03:26:59;;;;;;;5.28;1.42;;;;;;;11.83;100.00;99955.34;5054024;28;20037;-35
2023/10/22 03:29:25;;;;;;;2.80;1.10;;;;;;;11.81;100.00;99965.59;5052211;28;20068;-35
2023/10/22 03:31:50;;;;;;;;;;;;;;;11.86;100.00;99973.78;5053617;28;20275;-35
2023/10/22 03:34:15;;;;;;;5.80;1.80;;;;;;;11.83;100.00;99982.44;5052753;28;19912;-35
2023/10/22 03:36:41;;;;;;;4.38;1.40;;;;;;;11.79;100.00;99989.41;5052988;28;20748;-35
2023/10/22 03:39:07;;;;;;;3.47;1.50;;;;;;;11.83;100.00;99998.69;5053095;28;20035;-35
2023/10/22 03:41:33;;;;;;;3.83;1.38;;;;;;;11.78;100.00;100004.84;5053131;28;20025;-35
2023/10/22 03:43:59;;;;;;;2.50;1.30;;;;;;;11.78;100.00;100012.16;5055022;28;20029;-35
2023/10/22 03:46:24;;;;;;;2.93;1.63;;;;;;;11.77;100.00;100018.66;5056817;28;20439;-35
2023/10/22 03:48:49;;;;;;;6.20;1.83;;;;;;;11.74;100.00;100028.09;5056756;28;20024;-35
2023/10/22 03:51:15;;;;;;;4.55;1.65;;;;;;;11.65;100.00;100009.88;5057065;28;20064;-35
2023/10/22 03:53:40;;;;;;;4.73;1.63;;;;;;;11.71;100.00;100025.06;5056664;28;20047;-35
2023/10/22 03:56:07;;;;;;;3.30;1.92;;;;;;;11.67;100.00;100027.50;5056527;28;20260;-35
2023/10/22 03:58:32;;;;;;;4.30;2.05;;;;;;;11.73;100.00;100053.56;5056932;28;20041;-35
2023/10/22 04:00:58;;;;;;;4.90;2.20;;;;;;;11.64;100.00;100040.75;5057075;28;20082;-35
2023/10/22 04:03:23;;;;;;;4.78;2.20;;;;;;;11.69;100.00;100054.31;5057038;28;20025;-35
2023/10/22 04:05:58;;;;;;;2.73;1.90;;;;;;;11.71;100.00;100066.53;5056991;28;20037;-35
2023/10/22 04:08:25;;;;;;;5.45;2.30;;;;;;;11.69;100.00;100071.38;5056328;28;20279;-35
2023/10/22 04:10:51;;;;;;;3.58;2.25;;;;;;;11.69;100.00;100073.28;5055917;28;20385;-35
2023/10/22 04:13:16;;;;;;;;;;;;;;;11.73;100.00;100079.81;5056713;28;20032;-35
2023/10/22 04:15:42;;;;;;;5.88;3.10;;;;;;;11.62;100.00;100069.97;5056214;28;19912;-35
2023/10/22 04:18:07;;;;;;;4.72;2.75;;;;;;;11.67;100.00;100088.97;5056078;28;20033;-35
2023/10/22 04:20:33;;;;;;;5.77;2.87;;;;;;;11.66;100.00;100090.03;5057031;28;20025;-35
2023/10/22 04:22:59;;;;;;;4.07;3.00;;;;;;;11.64;100.00;100097.59;5056038;28;20095;-35
2023/10/22 04:25:25;;;;;;;4.80;2.80;;;;;;;11.63;100.00;100109.53;5056931;28;20037;-35
2023/10/22 04:27:50;;;;;;;5.35;3.20;;;;;;;11.59;100.00;100103.78;5055772;28;20033;-35
2023/10/22 04:30:15;;;;;;;5.22;3.40;;;;;;;11.60;100.00;100108.13;5055966;28;20035;-35
2023/10/22 04:32:41;;;;;;;5.57;3.60;;;;;;;11.50;100.00;100094.50;5056213;28;20025;-35
2023/10/22 04:35:07;;;;;;;6.45;4.05;;;;;;;11.60;100.00;100116.25;5056206;28;20577;-35
2023/10/22 04:37:32;;;;;;;5.20;3.30;;;;;;;11.59;100.00;100120.03;5055759;28;20025;-35
2023/10/22 04:39:58;;;;;;;5.10;3.42;;;;;;;11.53;100.00;100113.75;5056351;28;20104;-35
2023/10/22 04:42:24;;;;;;;6.07;3.33;;;;;;;11.58;100.00;100124.63;5055717;28;20029;-35
2023/10/22 04:44:49;;;;;;;;;;;;;;;11.64;100.00;100125.50;5056459;28;20477;-35
2023/10/22 04:47:15;;;;;;;4.18;3.45;;;;;;;11.57;100.00;100128.44;5055670;28;19920;-35
2023/10/22 04:49:42;;;;;;;8.40;4.22;;;;;;;11.54;100.00;100122.69;5056195;28;20147;-35
2023/10/22 04:52:10;;;;;;;6.18;3.65;;;;;;;11.54;100.00;100142.47;5055177;28;20412;-35
2023/10/22 04:54:35;;;;;;;8.32;3.65;;;;;;;11.46;100.00;100142.09;5055626;28;20036;-35
2023/10/22 04:57:02;;;;;;;4.47;3.35;;;;;;;11.44;100.00;100150.47;5055539;28;20049;-35
2023/10/22 04:59:28;;;;;;;6.07;3.65;;;;;;;11.41;100.00;100150.97;5055455;28;20025;-36
2023/10/22 05:01:53;;;;;;;6.15;3.60;;;;;;;11.38;100.00;100162.31;5055695;28;20078;-35
2023/10/22 05:04:19;;;;;;;6.73;3.60;;;;;;;11.38;100.00;100159.63;5056112;28;20025;-35
2023/10/22 05:06:44;;;;;;;5.13;3.22;;;;;;;11.37;100.00;100166.09;5055036;28;20040;-35
2023/10/22 05:09:10;;;;;;;4.25;3.28;;;;;;;11.31;100.00;100172.50;5055230;28;20021;-35
2023/10/22 05:11:35;;;;;;;5.30;3.33;;;;;;;11.30;100.00;100168.16;5055212;28;20124;-35
2023/10/22 05:14:01;;;;;;;8.02;4.40;;;;;;;11.32;100.00;100179.53;5055124;28;20025;-35
2023/10/22 05:16:27;;;;;;;5.22;3.35;;;;;;;11.29;100.00;100174.66;5055629;28;20056;-36
2023/10/22 05:18:53;;;;;;;7.72;3.08;;;;;;;11.23;100.00;100191.91;5054763;28;20029;-36
2023/10/22 05:21:18;;;;;;;;;;;;;;;11.29;100.00;100193.59;5055423;28;20033;-36
2023/10/22 05:23:43;;;;;;;7.63;2.93;;;;;;;11.20;100.00;100197.81;5054715;28;19954;-35
2023/10/22 05:26:14;;;;;;;5.43;2.63;;;;;;;11.13;100.00;100208.81;5054985;28;20322;-35
2023/10/22 05:28:40;;;;;;;3.33;2.50;;;;;;;11.09;100.00;100207.69;5055158;28;20025;-35
2023/10/22 05:31:19;;;;;;;4.15;2.25;;;;;;;11.02;100.00;100209.75;5054566;28;20037;-35
2023/10/22 05:33:45;;;;;;;5.75;2.58;;;;;;;10.99;100.00;100219.19;5055079;28;20033;-35
2023/10/22 05:36:17;;;;;;;4.18;2.50;;;;;;;10.93;100.00;100227.47;5054470;28;20111;-36
2023/10/22 05:38:43;;;;;;;3.85;2.55;;;;;;;10.87;100.00;100226.56;5054641;28;20412;-35
2023/10/22 05:41:16;;;;;;;3.60;2.10;;;;;;;10.84;100.00;100224.38;5054689;28;20029;-35
2023/10/22 05:43:41;;;;;;;4.57;2.08;;;;;;;10.85;100.00;100234.13;5055170;28;20029;-35
2023/10/22 05:46:06;;;;;;;3.47;2.23;;;;;;;10.79;100.00;100225.13;5054901;28;20108;-35
2023/10/22 05:48:32;;;;;;;3.97;1.93;;;;;;;10.74;100.00;100216.94;5055036;28;20064;-35
2023/10/22 05:51:00;;;;;;;4.47;2.00;;;;;;;10.74;100.00;100229.63;5054825;28;20021;-36
2023/10/22 05:53:25;;;;;;;3.60;2.20;;;;;;;10.72;100.00;100245.25;5054047;28;20036;-35
2023/10/22 05:55:57;;;;;;;8.18;2.95;;;;;;;10.65;100.00;100245.44;5054936;28;20111;-36
2023/10/22 05:58:26;;;;;;;11.60;2.63;;;;;;;10.70;100.00;100258.22;5054800;28;20131;-35
2023/10/22 06:00:52;;;;;;;5.47;2.10;;;;;;;10.67;100.00;100258.72;5054519;28;20029;-36
2023/10/22 06:03:18;;;;;;;6.07;2.47;;;;;;;10.67;100.00;100264.13;5054212;28;20017;-36
2023/10/22 06:05:44;;;;;;;4.30;1.77;;;;;;;10.61;100.00;100265.91;5053901;28;20031;-35
2023/10/22 06:08:10;;;;;;;4.07;2.15;;;;;;;10.51;100.00;100258.47;5054185;28;20028;-35
2023/10/22 06:10:42;;;;;;;4.03;1.97;;;;;;;10.56;100.00;100276.66;5054387;28;20083;-35
2023/10/22 06:13:08;;;;;;;3.75;2.03;;;;;;;10.53;100.00;100283.34;5053969;28;20039;-35
2023/10/22 06:15:42;;;;;;;2.90;1.95;;;;;;;10.36;100.00;100262.78;5053973;28;20420;-35
2023/10/22 06:18:08;;;;;;;3.83;1.75;;;;;;;10.48;100.00;100296.78;5053647;28;20029;-36
2023/10/22 06:20:34;;;;;;;3.05;1.58;;;;;;;10.48;100.00;100301.38;5053698;28;20487;-35
2023/10/22 06:23:00;;;;;;;5.63;1.65;;;;;;;10.41;100.00;100298.00;5054199;28;20104;-35
2023/10/22 06:25:25;;;;;;;4.97;1.77;;;;;;;10.47;100.00;100305.97;5054495;28;20120;-35
2023/10/22 06:27:51;;;;;;;4.40;1.53;;;;;;;10.44;100.00;100316.44;5054140;28;20104;-35
2023/10/22 06:30:22;;;;;;;3.83;1.80;;;;;;;10.47;100.00;100321.38;5054287;28;20025;-35
2023/10/22 06:32:55;;;;;;;2.88;1.40;;;;;;;10.36;100.00;100308.72;5054042;28;20033;-35
2023/10/22 06:35:21;;;;;;;2.92;1.60;;;;;;;10.37;100.00;100321.19;5054260;28;20029;-35
2023/10/22 06:37:47;;;;;;;2.25;1.60;;;;;;;10.43;100.00;100339.94;5053626;28;20061;-35
2023/10/22 06:40:13;;;;;;;3.83;1.55;;;;;;;10.44;100.00;100352.41;5053656;28;20059;-35
2023/10/22 06:42:40;;;;;;;4.53;1.45;;;;;;;10.34;100.00;100340.56;5054011;28;20037;-37
2023/10/22 06:45:07;;;;;;;3.60;1.75;;;;;;;10.38;100.00;100345.25;5054149;28;20029;-36
2023/10/22 06:47:36;;;;;;;5.88;1.60;;;;;;;10.42;100.00;100361.81;5054299;28;20433;-35
2023/10/22 06:50:07;;;;;;;2.90;1.55;;;;;;;10.41;100.00;100365.59;5053785;28;20430;-36
2023/10/22 06:52:33;;;;;;;7.65;2.60;;;;;;;10.41;100.00;100366.41;5053734;28;20021;-35
2023/10/22 06:54:58;;;;;;;4.00;1.58;;;;;;;10.49;100.00;100365.19;5054298;28;20136;-35
2023/10/22 06:57:24;;;;;;;4.50;1.70;;;;;;;10.43;100.00;100366.16;5053041;28;20052;-36
2023/10/22 06:59:52;;;;;;;5.87;1.70;;;;;;;10.36;100.00;100366.31;5054288;28;20025;-35
2023/10/22 07:02:17;;;;;;;5.78;1.95;;;;;;;10.43;100.00;100382.38;5054187;28;20643;-35
2023/10/22 07:04:44;;;;;;;3.20;1.80;;;;;;;10.46;100.00;100381.91;5053928;28;20032;-35
2023/10/22 07:07:10;;;;;;;4.35;1.60;;;;;;;10.42;100.00;100386.97;5053607;28;20111;-36
2023/10/22 07:09:35;;;;;;;4.03;1.80;;;;;;;10.43;100.00;100398.59;5053279;28;20064;-35
2023/10/22 07:12:00;;;;;;;4.87;2.20;;;;;;;10.47;100.00;100405.97;5053310;28;20025;-36
2023/10/22 07:14:27;;;;;;;7.47;2.20;;;;;;;10.43;100.00;100399.41;5053504;28;20303;-35
2023/10/22 07:16:52;;;;;;;;;;;;;;;10.54;100.00;100405.81;5053898;28;20025;-35
2023/10/22 07:19:17;;;;;;;4.53;2.30;;;;;;;10.51;100.00;100404.44;5055843;28;20073;-35
2023/10/22 07:21:44;;;;;;;5.10;2.30;;;;;;;10.49;100.00;100408.44;5057576;28;20435;-36
2023/10/22 07:24:09;;;;;;;4.43;2.35;;;;;;;10.43;100.00;100410.22;5056826;28;20053;-35
2023/10/22 07:26:35;;;;;;;3.53;1.80;;;;;;;10.52;100.00;100424.19;5057079;28;20115;-35
2023/10/22 07:29:00;;;;;;;4.05;1.85;;;;;;;10.53;100.00;100433.94;5057686;28;20457;-35
2023/10/22 07:31:29;;;;;;;3.40;1.58;;;;;;;10.45;100.00;100424.34;5056824;28;20110;-36
2023/10/22 07:33:54;;;;;;;4.25;1.38;;;;;;;10.44;100.00;100424.56;5057092;28;20381;-35
2023/10/22 07:36:19;;;;;;;8.50;1.57;;;;;;;10.58;100.00;100448.38;5057027;28;20041;-36
2023/10/22 07:38:45;;;;;;;6.93;1.43;;;;;;;10.63;100.00;100436.00;5056637;28;20374;-35
2023/10/22 07:41:14;;;;;;;5.87;1.73;;;;;;;10.80;100.00;100453.13;5056968;28;20355;-35
2023/10/22 07:43:40;;;;;;;2.65;1.13;;;;;;;10.88;100.00;100455.41;5056849;28;20268;-36
2023/10/22 07:46:10;;;;;;;3.93;1.40;;;;;;;11.04;100.00;100460.06;5057225;28;20116;-35
2023/10/22 07:48:47;;;;;;;5.13;1.40;;;;;;;11.21;100.00;100459.25;5056801;28;20044;-35
2023/10/22 07:51:15;;;;;;;4.38;1.30;;;;;;;11.34;100.00;100458.94;5056764;28;20041;-36
2023/10/22 07:53:40;;;;;;;3.17;1.30;;;;;;;11.48;100.00;100454.84;5056873;28;20449;-36
2023/10/22 07:56:06;;;;;;;4.43;1.83;;;;;;;11.55;100.00;100443.84;5057217;28;20032;-35
2023/10/22 07:58:36;;;;;;;4.35;1.17;;;;;;;11.73;100.00;100461.72;5056911;28;20538;-35
2023/10/22 08:01:02;;;;;;;6.30;1.30;;;;;;;11.81;100.00;100466.75;5057052;28;20132;-36
2023/10/22 08:03:29;;;;;;;3.65;1.50;;;;;;;11.84;100.00;100469.78;5056416;28;20071;-35
2023/10/22 08:05:54;;;;;;;4.13;1.42;;;;;;;11.86;100.00;100472.25;5056972;28;20123;-36
2023/10/22 08:08:20;;;;;;;4.35;1.33;;;;;;;11.75;100.00;100459.59;5056654;28;20408;-35
2023/10/22 08:10:45;;;;;;;4.70;1.47;;;;;;;11.89;100.00;100476.34;5056627;28;20039;-35
2023/10/22 08:13:10;;;;;;;3.17;1.30;;;;;;;11.81;100.00;100464.84;5056039;28;20272;-35
2023/10/22 08:15:36;;;;;;;2.70;1.10;;;;;;;11.90;100.00;100489.63;5056563;28;20025;-35
2023/10/22 08:18:03;;;;;;;3.57;1.40;;;;;;;11.93;100.00;100486.44;5056117;28;20344;-36
2023/10/22 08:20:28;;;;;;;4.55;1.27;;;;;;;11.95;100.00;100487.00;5056103;28;20800;-36
2023/10/22 08:22:54;;;;;;;3.03;1.20;;;;;;;11.97;100.00;100490.31;5056107;28;20115;-36
2023/10/22 08:25:20;;;;;;;3.17;1.40;;;;;;;11.97;100.00;100493.00;5056633;28;20056;-35
2023/10/22 08:27:45;;;;;;;34.33;2.70;;;;;;;11.93;100.00;100483.75;5056045;28;20056;-35
2023/10/22 08:30:11;;;;;;;3.40;1.30;;;;;;;11.98;100.00;100491.13;5055524;28;20017;-36
2023/10/22 08:32:37;;;;;;;3.03;1.27;;;;;;;12.02;100.00;100501.22;5055805;28;20267;-35
2023/10/22 08:35:03;;;;;;;4.03;1.50;;;;;;;12.02;100.00;100497.69;5056135;28;20029;-35
2023/10/22 08:37:28;;;;;;;6.97;1.92;;;;;;;12.06;100.00;100505.06;5055710;28;20029;-35
2023/10/22 08:39:54;;;;;;;4.88;1.60;;;;;;;12.01;100.00;100490.63;5056109;28;20028;-36
2023/10/22 08:42:23;;;;;;;3.33;1.67;;;;;;;12.09;100.00;100509.16;5055667;28;20040;-36
2023/10/22 08:44:49;;;;;;;5.28;1.55;;;;;;;12.20;100.00;100521.81;5055938;28;20032;-36
2023/10/22 08:47:15;;;;;;;2.00;1.23;;;;;;;12.18;100.00;100512.28;5055598;28;20449;-35
2023/10/22 08:49:41;;;;;;;4.22;1.63;;;;;;;12.31;100.00;100522.78;5056416;28;20371;-35
2023/10/22 08:52:10;;;;;;;3.78;1.52;;;;;;;12.37;100.00;100522.56;5055830;28;20029;-36
2023/10/22 08:54:38;;;;;;;3.08;1.48;;;;;;;12.45;100.00;100525.94;5055447;28;20079;-36
2023/10/22 08:57:04;;;;;;;3.92;1.67;;;;;;;12.53;100.00;100536.34;5055494;28;20358;-35
2023/10/22 08:59:30;;;;;;;2.55;1.30;;;;;;;12.52;100.00;100534.69;5055362;28;20031;-35
2023/10/22 09:01:56;;;;;;;5.95;1.42;;;;;;;12.59;100.00;100544.31;5055907;28;20040;-36
2023/10/22 09:04:22;;;;;;;3.88;1.58;;;;;;;12.67;100.00;100548.47;5054991;28;20113;-36
2023/10/22 09:06:52;;;;;;;4.07;1.60;;;;;;;12.72;100.00;100537.66;5055782;28;20060;-36
2023/10/22 09:09:35;;;;;;;3.83;1.70;;;;;;;12.75;100.00;100539.06;5056089;28;20029;-36
2023/10/22 09:12:01;;;;;;;3.30;1.17;;;;;;;12.65;100.00;100544.38;5055719;28;20420;-36
2023/10/22 09:14:27;;;;;;;3.88;1.70;;;;;;;12.66;100.00;100543.28;5055662;28;20025;-36
2023/10/22 09:16:52;;;;;;;2.43;1.40;;;;;;;12.72;100.00;100556.66;5055040;28;20358;-35
2023/10/22 09:19:37;;;;;;;3.80;1.27;;;;;;;12.81;100.00;100559.75;5055031;28;20076;-36
2023/10/22 09:22:04;;;;;;;4.05;1.88;;;;;;;12.83;100.00;100553.03;5054947;28;20032;-36
2023/10/22 09:24:47;;;;;;;4.10;1.58;;;;;;;12.87;100.00;100559.56;5054854;28;20029;-36
2023/10/22 09:27:28;;;;;;;3.35;1.60;;;;;;;12.76;100.00;100541.53;5055723;28;20373;-36
2023/10/22 09:29:54;;;;;;;3.97;1.45;;;;;;;12.97;100.00;100564.28;5054932;28;20025;-36
2023/10/22 09:32:20;;;;;;;;;;;;;;;13.13;100.00;100576.97;5055742;28;20424;-36
2023/10/22 09:34:45;;;;;;;5.32;1.50;;;;;;;13.14;100.00;100575.09;5054667;28;19912;-36
2023/10/22 09:37:11;;;;;;;4.45;1.63;;;;;;;13.14;100.00;100575.91;5055191;28;20025;-36
2023/10/22 09:39:43;;;;;;;5.05;1.60;;;;;;;13.14;100.00;100575.91;5054596;28;20430;-35
2023/10/22 09:42:09;;;;;;;2.70;1.58;;;;;;;13.22;100.00;100579.25;5054208;28;20064;-35
2023/10/22 09:44:35;;;;;;;5.00;1.60;;;;;;;13.27;100.00;100585.56;5054530;28;20396;-35
2023/10/22 09:47:02;;;;;;;3.60;1.63;;;;;;;13.25;100.00;100595.03;5054756;28;20435;-35
2023/10/22 09:49:32;;;;;;;4.35;1.55;;;;;;;13.29;100.00;100599.72;5054647;28;20064;-36
2023/10/22 09:52:00;;;;;;;3.63;1.60;;;;;;;13.22;100.00;100604.50;5054395;28;20025;-35
2023/10/22 09:54:42;;;;;;;2.65;1.50;;;;;;;13.17;100.00;100593.56;5054259;28;20033;-35
2023/10/22 09:57:09;;;;;;;3.60;1.92;;;;;;;13.06;100.00;100595.34;5054249;28;20469;-35
2023/10/22 09:59:35;;;;;;;3.97;1.80;;;;;;;13.12;100.00;100617.94;5054261;28;20029;-35
2023/10/22 10:02:01;;;;;;;7.85;2.95;;;;;;;13.05;100.00;100615.41;5054988;28;20029;-35
2023/10/22 10:04:27;;;;;;;3.22;1.95;;;;;;;13.01;100.00;100616.19;5054175;28;20112;-35
2023/10/22 10:06:53;;;;;;;4.18;2.05;;;;;;;12.94;100.00;100602.00;5053863;28;20464;-35
2023/10/22 10:09:21;;;;;;;4.15;1.90;;;;;;;12.98;100.00;100603.94;5053853;28;20532;-35
2023/10/22 10:11:47;;;;;;;2.45;1.65;;;;;;;13.07;100.00;100613.25;5054615;28;20029;-35
2023/10/22 10:14:36;;;;;;;3.78;2.22;;;;;;;13.15;100.00;100614.72;5053963;28;20427;-35
2023/10/22 10:17:02;;;;;;;5.10;2.20;;;;;;;13.22;100.00;100617.28;5054135;28;20035;-35
2023/10/22 10:19:27;;;;;;;3.10;1.90;;;;;;;13.37;100.00;100618.28;5053876;28;20056;-35
2023/10/22 10:21:53;;;;;;;4.25;2.67;;;;;;;13.48;100.00;100623.81;5053913;28;20049;-35
2023/10/22 10:24:23;;;;;;;;;;;;;;;13.59;100.00;100626.38;5054229;28;20412;-35
2023/10/22 10:26:55;;;;;;;3.25;2.25;;;;;;;13.60;100.00;100622.56;5054614;28;19909;-35
2023/10/22 10:29:26;;;;;;;3.28;2.58;;;;;;;13.62;100.00;100627.78;5053443;28;20551;-35
2023/10/22 10:31:53;;;;;;;3.78;2.10;;;;;;;13.58;100.00;100629.34;5053408;28;20074;-35
2023/10/22 10:34:27;;;;;;;6.65;2.50;;;;;;;13.58;100.00;100629.34;5053610;28;20025;-35
2023/10/22 10:36:53;;;;;;;3.15;2.08;;;;;;;13.63;100.00;100638.38;5054114;28;20424;-35
2023/10/22 10:39:46;;;;;;;4.80;2.55;;;;;;;13.63;100.00;100643.81;5053592;28;20029;-35
2023/10/22 10:42:13;;;;;;;3.88;2.00;;;;;;;13.55;100.00;100646.16;5052310;28;20033;-35
2023/10/22 10:45:00;;;;;;;3.65;2.30;;;;;;;13.54;100.00;100645.34;5053509;28;20048;-35
2023/10/22 10:47:28;;;;;;;5.32;2.10;;;;;;;13.46;100.00;100643.06;5053775;28;20047;-35
2023/10/22 10:49:59;;;;;;;3.78;2.00;;;;;;;13.45;100.00;100646.06;5053519;28;20021;-35
2023/10/22 10:52:48;;;;;;;5.90;2.30;;;;;;;13.43;100.00;100643.59;5054026;28;20031;-35
2023/10/22 10:55:19;;;;;;;3.35;2.00;;;;;;;13.39;100.00;100642.47;5053278;28;20381;-35
2023/10/22 10:57:49;;;;;;;3.80;2.03;;;;;;;13.37;100.00;100640.00;5053264;28;20447;-35
2023/10/22 11:00:21;;;;;;;5.95;2.35;;;;;;;13.39;100.00;100642.47;5053087;28;20558;-35
2023/10/22 11:02:47;;;;;;;3.80;2.20;;;;;;;13.38;100.00;100640.81;5053904;28;20033;-35
2023/10/22 11:05:14;;;;;;;2.95;1.98;;;;;;;13.32;100.00;100641.81;5053344;28;20059;-35
2023/10/22 11:07:43;;;;;;;4.38;2.80;;;;;;;13.35;100.00;100657.63;5053197;28;20037;-35
2023/10/22 11:10:16;;;;;;;10.27;3.53;;;;;;;13.42;100.00;100657.41;5053698;28;20038;-35
2023/10/22 11:12:44;;;;;;;4.20;2.22;;;;;;;13.43;100.00;100659.09;5053485;28;20425;-35
2023/10/22 11:15:10;;;;;;;3.33;2.10;;;;;;;13.40;100.00;100649.53;5053279;28;20036;-36
2023/10/22 11:17:38;;;;;;;3.72;2.03;;;;;;;13.51;100.00;100664.03;5052718;28;20120;-36
2023/10/22 11:20:04;;;;;;;3.38;2.00;;;;;;;13.53;100.00;100657.28;5053195;28;20104;-37